sensor_id;sensor_type;location;lat;lon;timestamp;P1;durP1;ratioP1;P2;durP2;ratioP2
65759;SDS011;52496;51.082;5.066;2022-07-22T00:01:54;13.57;;;5.72;;
65759;SDS011;52496;51.082;5.066;2022-07-22T00:04:25;13.30;;;6.00;;
65759;SDS011;52496;51.082;5.066;2022-07-22T00:06:55;13.45;;;5.55;;
65759;SDS011;52496;51.082;5.066;2022-07-22T00:09:26;19.45;;;5.85;;
65759;SDS011;52496;51.082;5.066;2022-07-22T00:11:56;10.07;;;4.97;;
65759;SDS011;52496;51.082;5.066;2022-07-22T00:14:27;12.73;;;5.10;;
65759;SDS011;52496;51.082;5.066;2022-07-22T00:16:57;13.00;;;5.63;;
65759;SDS011;52496;51.082;5.066;2022-07-22T00:19:28;11.57;;;5.47;;
65759;SDS011;52496;51.082;5.066;2022-07-22T00:21:59;12.57;;;5.07;;
65759;SDS011;52496;51.082;5.066;2022-07-22T00:24:29;12.32;;;5.30;;
65759;SDS011;52496;51.082;5.066;2022-07-22T00:27:00;14.60;;;5.63;;
65759;SDS011;52496;51.082;5.066;2022-07-22T00:29:31;12.18;;;5.82;;
65759;SDS011;52496;51.082;5.066;2022-07-22T00:32:01;11.68;;;5.97;;
65759;SDS011;52496;51.082;5.066;2022-07-22T00:34:32;17.75;;;6.05;;
65759;SDS011;52496;51.082;5.066;2022-07-22T00:37:02;13.95;;;5.97;;
65759;SDS011;52496;51.082;5.066;2022-07-22T00:39:34;12.90;;;5.93;;
65759;SDS011;52496;51.082;5.066;2022-07-22T00:42:05;17.00;;;5.75;;
65759;SDS011;52496;51.082;5.066;2022-07-22T00:44:36;15.85;;;5.63;;
65759;SDS011;52496;51.082;5.066;2022-07-22T00:47:12;13.90;;;6.18;;
65759;SDS011;52496;51.082;5.066;2022-07-22T00:49:42;11.00;;;5.68;;
65759;SDS011;52496;51.082;5.066;2022-07-22T00:52:13;12.23;;;5.70;;
65759;SDS011;52496;51.082;5.066;2022-07-22T00:54:44;20.15;;;6.35;;
65759;SDS011;52496;51.082;5.066;2022-07-22T00:57:32;10.60;;;6.00;;
65759;SDS011;52496;51.082;5.066;2022-07-22T01:02:39;14.70;;;6.13;;
65759;SDS011;52496;51.082;5.066;2022-07-22T01:05:28;12.32;;;5.88;;
65759;SDS011;52496;51.082;5.066;2022-07-22T01:07:59;16.52;;;6.72;;
65759;SDS011;52496;51.082;5.066;2022-07-22T01:10:35;14.65;;;6.13;;
65759;SDS011;52496;51.082;5.066;2022-07-22T01:13:06;11.93;;;5.05;;
65759;SDS011;52496;51.082;5.066;2022-07-22T01:15:40;13.30;;;6.32;;
65759;SDS011;52496;51.082;5.066;2022-07-22T01:18:10;13.82;;;5.65;;
65759;SDS011;52496;51.082;5.066;2022-07-22T01:23:30;14.25;;;5.70;;
65759;SDS011;52496;51.082;5.066;2022-07-22T01:26:07;13.70;;;6.10;;
65759;SDS011;52496;51.082;5.066;2022-07-22T01:28:37;16.75;;;6.32;;
65759;SDS011;52496;51.082;5.066;2022-07-22T01:31:09;13.45;;;5.97;;
65759;SDS011;52496;51.082;5.066;2022-07-22T01:33:40;18.35;;;6.57;;
65759;SDS011;52496;51.082;5.066;2022-07-22T01:36:14;13.68;;;6.18;;
65759;SDS011;52496;51.082;5.066;2022-07-22T01:38:45;12.05;;;6.07;;
65759;SDS011;52496;51.082;5.066;2022-07-22T01:41:32;15.60;;;5.80;;
65759;SDS011;52496;51.082;5.066;2022-07-22T01:44:03;13.15;;;5.97;;
65759;SDS011;52496;51.082;5.066;2022-07-22T01:46:34;18.50;;;6.95;;
65759;SDS011;52496;51.082;5.066;2022-07-22T01:49:04;11.02;;;5.28;;
65759;SDS011;52496;51.082;5.066;2022-07-22T01:51:36;21.80;;;6.35;;
65759;SDS011;52496;51.082;5.066;2022-07-22T01:54:06;13.65;;;6.22;;
65759;SDS011;52496;51.082;5.066;2022-07-22T01:56:37;12.30;;;5.75;;
65759;SDS011;52496;51.082;5.066;2022-07-22T01:59:07;11.40;;;6.13;;
65759;SDS011;52496;51.082;5.066;2022-07-22T02:01:38;12.88;;;6.03;;
65759;SDS011;52496;51.082;5.066;2022-07-22T02:04:18;11.27;;;5.65;;
65759;SDS011;52496;51.082;5.066;2022-07-22T02:06:48;11.25;;;5.70;;
65759;SDS011;52496;51.082;5.066;2022-07-22T02:09:21;13.73;;;5.68;;
65759;SDS011;52496;51.082;5.066;2022-07-22T02:11:51;11.07;;;4.88;;
65759;SDS011;52496;51.082;5.066;2022-07-22T02:14:22;12.02;;;5.70;;
65759;SDS011;52496;51.082;5.066;2022-07-22T02:16:53;11.90;;;5.68;;
65759;SDS011;52496;51.082;5.066;2022-07-22T02:19:25;11.32;;;5.38;;
65759;SDS011;52496;51.082;5.066;2022-07-22T02:21:55;9.55;;;5.63;;
65759;SDS011;52496;51.082;5.066;2022-07-22T02:24:26;14.00;;;5.28;;
65759;SDS011;52496;51.082;5.066;2022-07-22T02:26:56;14.85;;;5.82;;
65759;SDS011;52496;51.082;5.066;2022-07-22T02:29:27;12.75;;;5.55;;
65759;SDS011;52496;51.082;5.066;2022-07-22T02:31:57;10.13;;;5.43;;
65759;SDS011;52496;51.082;5.066;2022-07-22T02:34:28;11.80;;;5.75;;
65759;SDS011;52496;51.082;5.066;2022-07-22T02:36:59;19.30;;;5.63;;
65759;SDS011;52496;51.082;5.066;2022-07-22T02:39:30;8.30;;;4.72;;
65759;SDS011;52496;51.082;5.066;2022-07-22T02:42:00;13.25;;;5.22;;
65759;SDS011;52496;51.082;5.066;2022-07-22T02:44:31;13.07;;;5.03;;
65759;SDS011;52496;51.082;5.066;2022-07-22T02:47:02;12.57;;;4.38;;
65759;SDS011;52496;51.082;5.066;2022-07-22T02:49:33;11.35;;;4.97;;
65759;SDS011;52496;51.082;5.066;2022-07-22T02:52:04;11.93;;;5.05;;
65759;SDS011;52496;51.082;5.066;2022-07-22T02:54:35;12.23;;;5.22;;
65759;SDS011;52496;51.082;5.066;2022-07-22T02:57:05;9.35;;;5.70;;
65759;SDS011;52496;51.082;5.066;2022-07-22T02:59:36;11.60;;;5.13;;
65759;SDS011;52496;51.082;5.066;2022-07-22T03:02:06;11.32;;;5.20;;
65759;SDS011;52496;51.082;5.066;2022-07-22T03:04:37;12.32;;;5.88;;
65759;SDS011;52496;51.082;5.066;2022-07-22T03:07:08;15.00;;;5.75;;
65759;SDS011;52496;51.082;5.066;2022-07-22T03:09:38;13.52;;;5.55;;
65759;SDS011;52496;51.082;5.066;2022-07-22T03:12:09;9.65;;;5.03;;
65759;SDS011;52496;51.082;5.066;2022-07-22T03:14:39;9.30;;;5.15;;
65759;SDS011;52496;51.082;5.066;2022-07-22T03:17:10;18.23;;;6.80;;
65759;SDS011;52496;51.082;5.066;2022-07-22T03:19:40;13.55;;;7.78;;
65759;SDS011;52496;51.082;5.066;2022-07-22T03:22:11;15.70;;;6.63;;
65759;SDS011;52496;51.082;5.066;2022-07-22T03:24:42;14.70;;;5.80;;
65759;SDS011;52496;51.082;5.066;2022-07-22T03:27:12;9.65;;;5.18;;
65759;SDS011;52496;51.082;5.066;2022-07-22T03:29:43;9.75;;;5.05;;
65759;SDS011;52496;51.082;5.066;2022-07-22T03:32:15;13.02;;;5.53;;
65759;SDS011;52496;51.082;5.066;2022-07-22T03:34:45;12.52;;;6.03;;
65759;SDS011;52496;51.082;5.066;2022-07-22T03:37:16;10.40;;;5.82;;
65759;SDS011;52496;51.082;5.066;2022-07-22T03:39:46;12.75;;;5.88;;
65759;SDS011;52496;51.082;5.066;2022-07-22T03:42:17;14.63;;;6.05;;
65759;SDS011;52496;51.082;5.066;2022-07-22T03:44:48;13.43;;;6.32;;
65759;SDS011;52496;51.082;5.066;2022-07-22T03:47:19;15.50;;;6.10;;
65759;SDS011;52496;51.082;5.066;2022-07-22T03:49:50;12.15;;;6.18;;
65759;SDS011;52496;51.082;5.066;2022-07-22T03:52:21;12.95;;;5.70;;
65759;SDS011;52496;51.082;5.066;2022-07-22T03:54:51;15.07;;;7.18;;
65759;SDS011;52496;51.082;5.066;2022-07-22T03:57:22;16.92;;;6.25;;
65759;SDS011;52496;51.082;5.066;2022-07-22T03:59:53;14.57;;;6.75;;
65759;SDS011;52496;51.082;5.066;2022-07-22T04:02:23;10.70;;;6.00;;
65759;SDS011;52496;51.082;5.066;2022-07-22T04:04:54;13.60;;;5.70;;
65759;SDS011;52496;51.082;5.066;2022-07-22T04:07:24;10.00;;;5.30;;
65759;SDS011;52496;51.082;5.066;2022-07-22T04:09:55;12.88;;;5.55;;
65759;SDS011;52496;51.082;5.066;2022-07-22T04:12:38;11.93;;;6.77;;
65759;SDS011;52496;51.082;5.066;2022-07-22T04:15:10;10.80;;;5.38;;
65759;SDS011;52496;51.082;5.066;2022-07-22T04:17:40;11.75;;;5.57;;
65759;SDS011;52496;51.082;5.066;2022-07-22T04:20:11;10.32;;;5.80;;
65759;SDS011;52496;51.082;5.066;2022-07-22T04:22:41;13.88;;;4.90;;
65759;SDS011;52496;51.082;5.066;2022-07-22T04:25:12;11.48;;;5.45;;
65759;SDS011;52496;51.082;5.066;2022-07-22T04:27:43;16.52;;;6.00;;
65759;SDS011;52496;51.082;5.066;2022-07-22T04:30:13;11.52;;;5.53;;
65759;SDS011;52496;51.082;5.066;2022-07-22T04:32:44;11.30;;;6.55;;
65759;SDS011;52496;51.082;5.066;2022-07-22T04:35:14;13.15;;;5.90;;
65759;SDS011;52496;51.082;5.066;2022-07-22T04:37:45;13.02;;;6.00;;
65759;SDS011;52496;51.082;5.066;2022-07-22T04:40:15;11.95;;;5.30;;
65759;SDS011;52496;51.082;5.066;2022-07-22T04:42:46;13.88;;;5.95;;
65759;SDS011;52496;51.082;5.066;2022-07-22T04:45:16;12.73;;;6.25;;
65759;SDS011;52496;51.082;5.066;2022-07-22T04:47:47;11.00;;;5.55;;
65759;SDS011;52496;51.082;5.066;2022-07-22T04:50:17;12.30;;;5.72;;
65759;SDS011;52496;51.082;5.066;2022-07-22T04:52:48;13.25;;;5.97;;
65759;SDS011;52496;51.082;5.066;2022-07-22T04:55:18;12.13;;;6.22;;
65759;SDS011;52496;51.082;5.066;2022-07-22T04:57:49;11.57;;;6.38;;
65759;SDS011;52496;51.082;5.066;2022-07-22T05:00:20;12.82;;;5.38;;
65759;SDS011;52496;51.082;5.066;2022-07-22T05:02:51;11.57;;;6.13;;
65759;SDS011;52496;51.082;5.066;2022-07-22T05:05:22;15.52;;;6.22;;
65759;SDS011;52496;51.082;5.066;2022-07-22T05:07:53;13.68;;;6.05;;
65759;SDS011;52496;51.082;5.066;2022-07-22T05:10:23;12.60;;;6.55;;
65759;SDS011;52496;51.082;5.066;2022-07-22T05:12:54;15.57;;;6.03;;
65759;SDS011;52496;51.082;5.066;2022-07-22T05:15:24;17.48;;;6.65;;
65759;SDS011;52496;51.082;5.066;2022-07-22T05:17:55;9.75;;;5.70;;
65759;SDS011;52496;51.082;5.066;2022-07-22T05:20:25;11.20;;;5.82;;
65759;SDS011;52496;51.082;5.066;2022-07-22T05:22:56;14.88;;;6.95;;
65759;SDS011;52496;51.082;5.066;2022-07-22T05:25:26;12.13;;;6.22;;
65759;SDS011;52496;51.082;5.066;2022-07-22T05:27:57;13.57;;;6.43;;
65759;SDS011;52496;51.082;5.066;2022-07-22T05:30:28;11.63;;;5.82;;
65759;SDS011;52496;51.082;5.066;2022-07-22T05:32:58;12.82;;;7.05;;
65759;SDS011;52496;51.082;5.066;2022-07-22T05:35:29;14.07;;;6.50;;
65759;SDS011;52496;51.082;5.066;2022-07-22T05:38:00;15.88;;;6.38;;
65759;SDS011;52496;51.082;5.066;2022-07-22T05:40:30;11.77;;;6.60;;
65759;SDS011;52496;51.082;5.066;2022-07-22T05:43:01;14.82;;;7.55;;
65759;SDS011;52496;51.082;5.066;2022-07-22T05:45:31;13.43;;;7.28;;
65759;SDS011;52496;51.082;5.066;2022-07-22T05:48:02;15.43;;;6.78;;
65759;SDS011;52496;51.082;5.066;2022-07-22T05:50:33;12.15;;;6.32;;
65759;SDS011;52496;51.082;5.066;2022-07-22T05:53:03;14.20;;;6.25;;
65759;SDS011;52496;51.082;5.066;2022-07-22T05:55:33;13.85;;;6.60;;
65759;SDS011;52496;51.082;5.066;2022-07-22T05:58:04;14.00;;;6.82;;
65759;SDS011;52496;51.082;5.066;2022-07-22T06:00:35;11.80;;;6.35;;
65759;SDS011;52496;51.082;5.066;2022-07-22T06:03:05;14.43;;;6.80;;
65759;SDS011;52496;51.082;5.066;2022-07-22T06:05:36;11.02;;;6.15;;
65759;SDS011;52496;51.082;5.066;2022-07-22T06:08:06;12.05;;;7.18;;
65759;SDS011;52496;51.082;5.066;2022-07-22T06:10:37;12.85;;;6.75;;
65759;SDS011;52496;51.082;5.066;2022-07-22T06:13:07;14.35;;;6.00;;
65759;SDS011;52496;51.082;5.066;2022-07-22T06:15:37;14.73;;;6.32;;
65759;SDS011;52496;51.082;5.066;2022-07-22T06:18:08;10.68;;;5.40;;
65759;SDS011;52496;51.082;5.066;2022-07-22T06:20:38;13.90;;;5.75;;
65759;SDS011;52496;51.082;5.066;2022-07-22T06:23:09;10.80;;;4.00;;
65759;SDS011;52496;51.082;5.066;2022-07-22T06:25:40;10.43;;;4.82;;
65759;SDS011;52496;51.082;5.066;2022-07-22T06:28:11;8.68;;;3.90;;
65759;SDS011;52496;51.082;5.066;2022-07-22T06:30:42;11.48;;;4.25;;
65759;SDS011;52496;51.082;5.066;2022-07-22T06:33:12;11.27;;;3.97;;
65759;SDS011;52496;51.082;5.066;2022-07-22T06:35:43;8.13;;;4.05;;
65759;SDS011;52496;51.082;5.066;2022-07-22T06:38:13;8.90;;;3.60;;
65759;SDS011;52496;51.082;5.066;2022-07-22T06:40:44;7.07;;;3.05;;
65759;SDS011;52496;51.082;5.066;2022-07-22T06:43:14;7.13;;;3.58;;
65759;SDS011;52496;51.082;5.066;2022-07-22T06:45:45;9.82;;;3.45;;
65759;SDS011;52496;51.082;5.066;2022-07-22T06:48:15;6.03;;;2.40;;
65759;SDS011;52496;51.082;5.066;2022-07-22T06:50:46;5.95;;;2.55;;
65759;SDS011;52496;51.082;5.066;2022-07-22T06:53:17;7.53;;;2.17;;
65759;SDS011;52496;51.082;5.066;2022-07-22T06:55:47;5.60;;;2.05;;
65759;SDS011;52496;51.082;5.066;2022-07-22T06:58:17;7.60;;;2.58;;
65759;SDS011;52496;51.082;5.066;2022-07-22T07:00:48;5.60;;;2.40;;
65759;SDS011;52496;51.082;5.066;2022-07-22T07:03:18;5.88;;;2.40;;
65759;SDS011;52496;51.082;5.066;2022-07-22T07:05:49;8.35;;;2.88;;
65759;SDS011;52496;51.082;5.066;2022-07-22T07:08:20;6.78;;;2.50;;
65759;SDS011;52496;51.082;5.066;2022-07-22T07:10:50;8.35;;;2.40;;
65759;SDS011;52496;51.082;5.066;2022-07-22T07:13:21;5.93;;;2.45;;
65759;SDS011;52496;51.082;5.066;2022-07-22T07:15:51;8.75;;;2.85;;
65759;SDS011;52496;51.082;5.066;2022-07-22T07:18:22;7.03;;;2.47;;
65759;SDS011;52496;51.082;5.066;2022-07-22T07:20:52;5.13;;;2.50;;
65759;SDS011;52496;51.082;5.066;2022-07-22T07:23:23;6.65;;;3.33;;
65759;SDS011;52496;51.082;5.066;2022-07-22T07:25:53;8.07;;;3.15;;
65759;SDS011;52496;51.082;5.066;2022-07-22T07:28:24;6.72;;;2.78;;
65759;SDS011;52496;51.082;5.066;2022-07-22T07:30:54;4.43;;;2.50;;
65759;SDS011;52496;51.082;5.066;2022-07-22T07:33:25;6.38;;;2.83;;
65759;SDS011;52496;51.082;5.066;2022-07-22T07:35:55;6.75;;;2.28;;
65759;SDS011;52496;51.082;5.066;2022-07-22T07:38:26;5.35;;;2.70;;
65759;SDS011;52496;51.082;5.066;2022-07-22T07:40:56;5.43;;;2.80;;
65759;SDS011;52496;51.082;5.066;2022-07-22T07:43:27;6.68;;;3.35;;
65759;SDS011;52496;51.082;5.066;2022-07-22T07:45:57;9.98;;;3.63;;
65759;SDS011;52496;51.082;5.066;2022-07-22T07:48:28;5.68;;;3.25;;
65759;SDS011;52496;51.082;5.066;2022-07-22T07:50:59;9.93;;;3.42;;
65759;SDS011;52496;51.082;5.066;2022-07-22T07:53:29;5.90;;;3.40;;
65759;SDS011;52496;51.082;5.066;2022-07-22T07:56:00;5.90;;;3.20;;
65759;SDS011;52496;51.082;5.066;2022-07-22T07:58:30;7.90;;;3.30;;
65759;SDS011;52496;51.082;5.066;2022-07-22T08:01:01;9.52;;;3.05;;
65759;SDS011;52496;51.082;5.066;2022-07-22T08:03:31;6.90;;;3.10;;
65759;SDS011;52496;51.082;5.066;2022-07-22T08:06:02;11.48;;;3.85;;
65759;SDS011;52496;51.082;5.066;2022-07-22T08:08:33;7.53;;;2.83;;
65759;SDS011;52496;51.082;5.066;2022-07-22T08:11:03;5.60;;;2.58;;
65759;SDS011;52496;51.082;5.066;2022-07-22T08:13:34;4.93;;;2.70;;
65759;SDS011;52496;51.082;5.066;2022-07-22T08:16:04;6.32;;;2.72;;
65759;SDS011;52496;51.082;5.066;2022-07-22T08:18:35;5.50;;;2.63;;
65759;SDS011;52496;51.082;5.066;2022-07-22T08:21:06;5.22;;;3.05;;
65759;SDS011;52496;51.082;5.066;2022-07-22T08:23:36;6.82;;;3.00;;
65759;SDS011;52496;51.082;5.066;2022-07-22T08:26:07;5.63;;;3.05;;
65759;SDS011;52496;51.082;5.066;2022-07-22T08:28:37;9.10;;;3.17;;
65759;SDS011;52496;51.082;5.066;2022-07-22T08:31:08;6.32;;;2.85;;
65759;SDS011;52496;51.082;5.066;2022-07-22T08:33:38;6.03;;;3.10;;
65759;SDS011;52496;51.082;5.066;2022-07-22T08:36:09;7.40;;;3.40;;
65759;SDS011;52496;51.082;5.066;2022-07-22T08:38:39;9.00;;;3.47;;
65759;SDS011;52496;51.082;5.066;2022-07-22T08:41:10;6.00;;;3.17;;
65759;SDS011;52496;51.082;5.066;2022-07-22T08:43:42;6.82;;;3.05;;
65759;SDS011;52496;51.082;5.066;2022-07-22T08:46:14;5.90;;;3.10;;
65759;SDS011;52496;51.082;5.066;2022-07-22T08:48:45;7.78;;;3.00;;
65759;SDS011;52496;51.082;5.066;2022-07-22T08:51:16;6.43;;;3.28;;
65759;SDS011;52496;51.082;5.066;2022-07-22T08:53:47;5.95;;;3.08;;
65759;SDS011;52496;51.082;5.066;2022-07-22T08:56:17;5.65;;;3.00;;
65759;SDS011;52496;51.082;5.066;2022-07-22T08:58:48;4.55;;;2.80;;
65759;SDS011;52496;51.082;5.066;2022-07-22T09:01:18;5.45;;;2.92;;
65759;SDS011;52496;51.082;5.066;2022-07-22T09:03:53;6.95;;;2.83;;
65759;SDS011;52496;51.082;5.066;2022-07-22T09:06:27;5.25;;;2.90;;
65759;SDS011;52496;51.082;5.066;2022-07-22T09:09:04;6.65;;;2.97;;
65759;SDS011;52496;51.082;5.066;2022-07-22T09:11:36;4.57;;;2.67;;
65759;SDS011;52496;51.082;5.066;2022-07-22T09:14:06;7.93;;;3.28;;
65759;SDS011;52496;51.082;5.066;2022-07-22T09:16:38;6.15;;;2.88;;
65759;SDS011;52496;51.082;5.066;2022-07-22T09:19:13;5.03;;;2.95;;
65759;SDS011;52496;51.082;5.066;2022-07-22T09:21:44;4.80;;;2.90;;
65759;SDS011;52496;51.082;5.066;2022-07-22T09:24:30;5.47;;;2.83;;
65759;SDS011;52496;51.082;5.066;2022-07-22T09:27:05;5.38;;;2.85;;
65759;SDS011;52496;51.082;5.066;2022-07-22T09:29:42;8.00;;;2.75;;
65759;SDS011;52496;51.082;5.066;2022-07-22T09:32:19;5.47;;;2.90;;
65759;SDS011;52496;51.082;5.066;2022-07-22T09:34:49;4.55;;;2.60;;
65759;SDS011;52496;51.082;5.066;2022-07-22T09:37:20;6.18;;;3.10;;
65759;SDS011;52496;51.082;5.066;2022-07-22T09:39:51;7.88;;;2.53;;
65759;SDS011;52496;51.082;5.066;2022-07-22T09:42:21;5.22;;;2.65;;
65759;SDS011;52496;51.082;5.066;2022-07-22T09:44:52;5.15;;;2.90;;
65759;SDS011;52496;51.082;5.066;2022-07-22T09:47:27;4.78;;;2.67;;
65759;SDS011;52496;51.082;5.066;2022-07-22T09:49:59;5.47;;;2.80;;
65759;SDS011;52496;51.082;5.066;2022-07-22T09:52:29;4.32;;;2.47;;
65759;SDS011;52496;51.082;5.066;2022-07-22T09:55:00;6.30;;;3.15;;
65759;SDS011;52496;51.082;5.066;2022-07-22T09:57:31;9.48;;;3.17;;
65759;SDS011;52496;51.082;5.066;2022-07-22T10:00:03;5.95;;;2.80;;
65759;SDS011;52496;51.082;5.066;2022-07-22T10:02:41;6.18;;;2.90;;
65759;SDS011;52496;51.082;5.066;2022-07-22T10:05:17;4.38;;;2.70;;
65759;SDS011;52496;51.082;5.066;2022-07-22T10:07:50;7.40;;;3.05;;
65759;SDS011;52496;51.082;5.066;2022-07-22T10:10:24;5.68;;;3.10;;
65759;SDS011;52496;51.082;5.066;2022-07-22T10:12:57;8.23;;;3.33;;
65759;SDS011;52496;51.082;5.066;2022-07-22T10:15:29;5.20;;;2.83;;
65759;SDS011;52496;51.082;5.066;2022-07-22T10:18:02;4.85;;;2.90;;
65759;SDS011;52496;51.082;5.066;2022-07-22T10:20:44;4.60;;;2.75;;
65759;SDS011;52496;51.082;5.066;2022-07-22T10:23:15;7.38;;;3.28;;
65759;SDS011;52496;51.082;5.066;2022-07-22T10:25:49;6.00;;;2.83;;
65759;SDS011;52496;51.082;5.066;2022-07-22T10:28:26;5.60;;;3.20;;
65759;SDS011;52496;51.082;5.066;2022-07-22T10:33:51;5.35;;;3.03;;
65759;SDS011;52496;51.082;5.066;2022-07-22T10:36:36;4.93;;;3.22;;
65759;SDS011;52496;51.082;5.066;2022-07-22T10:39:13;8.07;;;3.63;;
65759;SDS011;52496;51.082;5.066;2022-07-22T10:41:44;7.07;;;3.20;;
65759;SDS011;52496;51.082;5.066;2022-07-22T10:44:15;5.63;;;3.35;;
65759;SDS011;52496;51.082;5.066;2022-07-22T10:55:37;7.68;;;3.20;;
65759;SDS011;52496;51.082;5.066;2022-07-22T11:01:11;6.28;;;2.78;;
65759;SDS011;52496;51.082;5.066;2022-07-22T11:03:44;6.50;;;3.28;;
65759;SDS011;52496;51.082;5.066;2022-07-22T11:06:17;6.10;;;3.17;;
65759;SDS011;52496;51.082;5.066;2022-07-22T11:08:54;6.93;;;2.90;;
65759;SDS011;52496;51.082;5.066;2022-07-22T11:12:00;7.75;;;2.80;;
65759;SDS011;52496;51.082;5.066;2022-07-22T11:14:29;6.32;;;2.90;;
65759;SDS011;52496;51.082;5.066;2022-07-22T11:19:37;5.85;;;3.22;;
65759;SDS011;52496;51.082;5.066;2022-07-22T11:22:10;5.53;;;3.03;;
65759;SDS011;52496;51.082;5.066;2022-07-22T11:24:42;8.85;;;3.30;;
65759;SDS011;52496;51.082;5.066;2022-07-22T11:27:18;7.65;;;3.67;;
65759;SDS011;52496;51.082;5.066;2022-07-22T11:29:53;6.70;;;3.50;;
65759;SDS011;52496;51.082;5.066;2022-07-22T11:32:25;6.78;;;3.25;;
65759;SDS011;52496;51.082;5.066;2022-07-22T11:35:00;6.50;;;3.20;;
65759;SDS011;52496;51.082;5.066;2022-07-22T11:37:31;6.80;;;3.28;;
65759;SDS011;52496;51.082;5.066;2022-07-22T11:40:03;6.88;;;2.88;;
65759;SDS011;52496;51.082;5.066;2022-07-22T11:42:35;7.10;;;2.90;;
65759;SDS011;52496;51.082;5.066;2022-07-22T11:45:07;5.68;;;2.65;;
65759;SDS011;52496;51.082;5.066;2022-07-22T11:47:37;5.85;;;2.75;;
65759;SDS011;52496;51.082;5.066;2022-07-22T11:50:28;7.15;;;2.90;;
65759;SDS011;52496;51.082;5.066;2022-07-22T11:53:02;7.13;;;3.10;;
65759;SDS011;52496;51.082;5.066;2022-07-22T11:55:34;6.88;;;2.90;;
65759;SDS011;52496;51.082;5.066;2022-07-22T11:58:05;7.15;;;3.10;;
65759;SDS011;52496;51.082;5.066;2022-07-22T12:00:35;6.20;;;2.92;;
65759;SDS011;52496;51.082;5.066;2022-07-22T12:03:06;7.45;;;3.67;;
65759;SDS011;52496;51.082;5.066;2022-07-22T12:05:37;4.90;;;2.95;;
65759;SDS011;52496;51.082;5.066;2022-07-22T12:08:07;6.38;;;3.13;;
65759;SDS011;52496;51.082;5.066;2022-07-22T12:10:38;5.72;;;2.72;;
65759;SDS011;52496;51.082;5.066;2022-07-22T12:13:12;7.07;;;2.85;;
65759;SDS011;52496;51.082;5.066;2022-07-22T12:15:47;8.25;;;3.20;;
65759;SDS011;52496;51.082;5.066;2022-07-22T12:18:18;6.75;;;3.05;;
65759;SDS011;52496;51.082;5.066;2022-07-22T12:20:51;5.63;;;3.13;;
65759;SDS011;52496;51.082;5.066;2022-07-22T12:23:24;7.93;;;4.55;;
65759;SDS011;52496;51.082;5.066;2022-07-22T12:25:57;5.15;;;2.63;;
65759;SDS011;52496;51.082;5.066;2022-07-22T12:28:29;8.43;;;2.70;;
65759;SDS011;52496;51.082;5.066;2022-07-22T12:31:00;6.38;;;3.08;;
65759;SDS011;52496;51.082;5.066;2022-07-22T12:33:31;5.28;;;2.85;;
65759;SDS011;52496;51.082;5.066;2022-07-22T12:38:36;5.72;;;2.80;;
65759;SDS011;52496;51.082;5.066;2022-07-22T12:41:23;6.18;;;3.00;;
65759;SDS011;52496;51.082;5.066;2022-07-22T12:43:55;4.57;;;2.45;;
65759;SDS011;52496;51.082;5.066;2022-07-22T12:46:26;7.75;;;2.75;;
65759;SDS011;52496;51.082;5.066;2022-07-22T12:48:56;5.72;;;2.30;;
65759;SDS011;52496;51.082;5.066;2022-07-22T12:51:30;6.35;;;2.70;;
65759;SDS011;52496;51.082;5.066;2022-07-22T12:54:01;7.93;;;3.13;;
65759;SDS011;52496;51.082;5.066;2022-07-22T12:56:31;5.00;;;2.63;;
65759;SDS011;52496;51.082;5.066;2022-07-22T12:59:03;5.43;;;2.70;;
65759;SDS011;52496;51.082;5.066;2022-07-22T13:01:34;4.82;;;2.50;;
65759;SDS011;52496;51.082;5.066;2022-07-22T13:04:04;5.28;;;2.33;;
65759;SDS011;52496;51.082;5.066;2022-07-22T13:06:35;4.80;;;2.63;;
65759;SDS011;52496;51.082;5.066;2022-07-22T13:09:05;8.63;;;2.72;;
65759;SDS011;52496;51.082;5.066;2022-07-22T13:11:36;5.03;;;2.67;;
65759;SDS011;52496;51.082;5.066;2022-07-22T13:14:13;4.53;;;2.70;;
65759;SDS011;52496;51.082;5.066;2022-07-22T13:16:43;5.75;;;2.95;;
65759;SDS011;52496;51.082;5.066;2022-07-22T13:19:14;6.97;;;2.92;;
65759;SDS011;52496;51.082;5.066;2022-07-22T13:21:45;5.50;;;3.00;;
65759;SDS011;52496;51.082;5.066;2022-07-22T13:24:15;5.38;;;2.58;;
65759;SDS011;52496;51.082;5.066;2022-07-22T13:26:46;7.18;;;3.13;;
65759;SDS011;52496;51.082;5.066;2022-07-22T13:29:16;4.90;;;2.53;;
65759;SDS011;52496;51.082;5.066;2022-07-22T13:31:47;5.40;;;3.05;;
65759;SDS011;52496;51.082;5.066;2022-07-22T13:34:19;5.43;;;2.80;;
65759;SDS011;52496;51.082;5.066;2022-07-22T13:36:50;5.75;;;2.78;;
65759;SDS011;52496;51.082;5.066;2022-07-22T13:39:21;5.15;;;2.67;;
65759;SDS011;52496;51.082;5.066;2022-07-22T13:41:52;4.72;;;2.70;;
65759;SDS011;52496;51.082;5.066;2022-07-22T13:44:23;7.07;;;3.42;;
65759;SDS011;52496;51.082;5.066;2022-07-22T13:46:55;6.70;;;2.90;;
65759;SDS011;52496;51.082;5.066;2022-07-22T13:49:27;5.53;;;2.88;;
65759;SDS011;52496;51.082;5.066;2022-07-22T13:51:58;4.07;;;2.50;;
65759;SDS011;52496;51.082;5.066;2022-07-22T13:54:28;5.25;;;2.58;;
65759;SDS011;52496;51.082;5.066;2022-07-22T13:56:59;4.60;;;2.70;;
65759;SDS011;52496;51.082;5.066;2022-07-22T13:59:30;6.05;;;2.80;;
65759;SDS011;52496;51.082;5.066;2022-07-22T14:02:01;8.45;;;2.97;;
65759;SDS011;52496;51.082;5.066;2022-07-22T14:04:32;5.82;;;2.88;;
65759;SDS011;52496;51.082;5.066;2022-07-22T14:07:03;5.97;;;2.70;;
65759;SDS011;52496;51.082;5.066;2022-07-22T14:09:33;7.15;;;3.03;;
65759;SDS011;52496;51.082;5.066;2022-07-22T14:12:04;5.68;;;2.80;;
65759;SDS011;52496;51.082;5.066;2022-07-22T14:14:35;7.47;;;2.67;;
65759;SDS011;52496;51.082;5.066;2022-07-22T14:17:05;10.77;;;3.95;;
65759;SDS011;52496;51.082;5.066;2022-07-22T14:19:36;6.03;;;3.00;;
65759;SDS011;52496;51.082;5.066;2022-07-22T14:22:06;6.93;;;2.80;;
65759;SDS011;52496;51.082;5.066;2022-07-22T14:24:37;5.57;;;2.90;;
65759;SDS011;52496;51.082;5.066;2022-07-22T14:27:07;6.82;;;2.70;;
65759;SDS011;52496;51.082;5.066;2022-07-22T14:29:37;5.75;;;2.75;;
65759;SDS011;52496;51.082;5.066;2022-07-22T14:32:08;7.10;;;2.83;;
65759;SDS011;52496;51.082;5.066;2022-07-22T14:34:38;6.25;;;3.13;;
65759;SDS011;52496;51.082;5.066;2022-07-22T14:37:09;5.05;;;2.60;;
65759;SDS011;52496;51.082;5.066;2022-07-22T14:39:40;4.88;;;2.70;;
65759;SDS011;52496;51.082;5.066;2022-07-22T14:42:10;4.85;;;2.60;;
65759;SDS011;52496;51.082;5.066;2022-07-22T14:44:41;5.78;;;2.80;;
65759;SDS011;52496;51.082;5.066;2022-07-22T14:47:11;5.20;;;2.78;;
65759;SDS011;52496;51.082;5.066;2022-07-22T14:49:42;6.13;;;2.75;;
65759;SDS011;52496;51.082;5.066;2022-07-22T14:52:13;6.90;;;2.70;;
65759;SDS011;52496;51.082;5.066;2022-07-22T14:54:43;7.43;;;3.00;;
65759;SDS011;52496;51.082;5.066;2022-07-22T14:57:14;7.97;;;2.97;;
65759;SDS011;52496;51.082;5.066;2022-07-22T14:59:44;6.25;;;2.95;;
65759;SDS011;52496;51.082;5.066;2022-07-22T15:02:15;6.75;;;3.35;;
65759;SDS011;52496;51.082;5.066;2022-07-22T15:04:46;8.10;;;3.22;;
65759;SDS011;52496;51.082;5.066;2022-07-22T15:07:16;7.38;;;3.15;;
65759;SDS011;52496;51.082;5.066;2022-07-22T15:09:47;5.45;;;2.97;;
65759;SDS011;52496;51.082;5.066;2022-07-22T15:12:17;7.13;;;3.22;;
65759;SDS011;52496;51.082;5.066;2022-07-22T15:14:48;9.88;;;3.00;;
65759;SDS011;52496;51.082;5.066;2022-07-22T15:17:18;6.25;;;3.22;;
65759;SDS011;52496;51.082;5.066;2022-07-22T15:19:49;6.82;;;2.90;;
65759;SDS011;52496;51.082;5.066;2022-07-22T15:22:20;6.90;;;3.30;;
65759;SDS011;52496;51.082;5.066;2022-07-22T15:24:52;6.20;;;2.80;;
65759;SDS011;52496;51.082;5.066;2022-07-22T15:27:22;8.55;;;2.90;;
65759;SDS011;52496;51.082;5.066;2022-07-22T15:29:53;7.15;;;3.25;;
65759;SDS011;52496;51.082;5.066;2022-07-22T15:32:23;6.57;;;3.53;;
65759;SDS011;52496;51.082;5.066;2022-07-22T15:34:54;5.65;;;3.40;;